createdAt,value
2022-08-16T00:01:59.968Z,31.95
2022-08-16T00:06:46.112Z,36.05
2022-08-16T00:11:31.495Z,28.23
2022-08-16T00:17:00.717Z,35.17
2022-08-16T00:21:24.521Z,35.70
2022-08-16T00:26:35.541Z,36.00
2022-08-16T00:31:15.364Z,28.95
2022-08-16T00:36:03.125Z,32.80
2022-08-16T00:40:54.089Z,30.13
2022-08-16T00:45:58.165Z,30.83
2022-08-16T00:50:47.178Z,32.47
2022-08-16T00:55:47.403Z,34.80
2022-08-16T01:00:35.291Z,32.10
2022-08-16T01:05:24.002Z,32.05
2022-08-16T01:10:16.128Z,35.33
2022-08-16T01:15:05.080Z,39.17
2022-08-16T01:19:57.055Z,33.13
2022-08-16T01:24:53.820Z,35.00
2022-08-16T01:29:57.750Z,32.35
2022-08-16T01:34:47.359Z,33.78
2022-08-16T01:39:39.097Z,33.85
2022-08-16T01:44:33.510Z,29.63
2022-08-16T01:49:45.711Z,35.10
2022-08-16T01:54:33.629Z,35.00
2022-08-16T01:59:23.366Z,33.38
2022-08-16T02:04:12.115Z,35.22
2022-08-16T02:09:19.422Z,35.58
2022-08-16T02:14:05.948Z,33.67
2022-08-16T02:19:03.867Z,37.60
2022-08-16T02:24:17.528Z,37.33
2022-08-16T02:29:13.005Z,38.25
2022-08-16T02:33:58.273Z,38.33
2022-08-16T02:38:43.736Z,38.72
2022-08-16T02:43:36.216Z,38.70
2022-08-16T02:53:15.225Z,41.13
2022-08-16T02:58:03.746Z,40.80
2022-08-16T03:02:55.905Z,34.80
2022-08-16T03:07:41.787Z,32.90
2022-08-16T03:12:55.345Z,41.67
2022-08-16T03:17:53.064Z,34.10
2022-08-16T03:22:45.354Z,32.58
2022-08-16T03:27:32.296Z,35.38
2022-08-16T03:32:17.955Z,37.13
2022-08-16T03:37:05.367Z,31.85
2022-08-16T03:41:59.918Z,32.65
2022-08-16T03:46:49.884Z,37.55
2022-08-16T03:51:35.457Z,37.03
2022-08-16T03:56:21.509Z,34.47
2022-08-16T04:01:09.666Z,35.88
2022-08-16T04:05:58.794Z,31.77
2022-08-16T04:10:44.425Z,34.13
2022-08-16T04:15:31.194Z,37.25
2022-08-16T04:20:23.666Z,34.78
2022-08-16T04:25:16.831Z,35.72
2022-08-16T04:30:03.224Z,31.88
2022-08-16T04:34:49.294Z,30.10
2022-08-16T04:39:55.255Z,31.13
2022-08-16T04:44:53.691Z,36.05
2022-08-16T04:49:46.174Z,33.38
2022-08-16T04:59:19.097Z,29.08
2022-08-16T05:04:09.423Z,34.60
2022-08-16T05:09:05.355Z,30.27
2022-08-16T05:13:52.190Z,34.85
2022-08-16T05:18:40.355Z,37.05
2022-08-16T05:23:31.815Z,35.33
2022-08-16T05:28:17.380Z,38.70
2022-08-16T05:33:03.148Z,34.80
2022-08-16T05:37:52.416Z,34.45
2022-08-16T05:42:38.220Z,38.30
2022-08-16T05:47:23.611Z,42.50
2022-08-16T05:52:11.761Z,42.83
2022-08-16T05:57:02.038Z,40.97
2022-08-16T06:01:50.790Z,44.90
2022-08-16T06:06:36.166Z,43.53
2022-08-16T06:11:25.610Z,45.05
2022-08-16T06:16:18.528Z,42.55
2022-08-16T06:21:03.869Z,40.15
2022-08-16T06:25:53.112Z,42.75
2022-08-16T06:30:43.412Z,44.90
2022-08-16T06:35:40.420Z,43.03
2022-08-16T06:40:33.668Z,43.00
2022-08-16T06:45:19.412Z,36.22
2022-08-16T06:50:04.498Z,41.33
2022-08-16T06:54:53.723Z,39.75
2022-08-16T06:59:52.169Z,39.15
2022-08-16T07:04:40.536Z,37.67
2022-08-16T07:09:25.655Z,38.88
2022-08-16T07:14:23.531Z,38.83
2022-08-16T07:19:11.998Z,36.88
2022-08-16T07:24:05.932Z,45.65
2022-08-16T07:28:51.488Z,42.28
2022-08-16T07:33:52.052Z,46.53
2022-08-16T07:38:39.019Z,41.45
2022-08-16T07:43:24.235Z,40.28
2022-08-16T07:48:14.719Z,40.60
2022-08-16T07:53:02.915Z,38.20
2022-08-16T07:57:58.139Z,33.97
2022-08-16T08:02:46.077Z,34.97
2022-08-16T08:07:32.509Z,29.10
2022-08-16T08:12:32.112Z,28.02
2022-08-16T08:17:23.092Z,25.02
2022-08-16T08:22:09.986Z,28.38
2022-08-16T08:27:06.522Z,23.25
2022-08-16T08:31:55.057Z,22.25
2022-08-16T08:36:41.455Z,18.42
2022-08-16T08:41:29.653Z,16.75
2022-08-16T08:46:18.148Z,15.90
2022-08-16T08:51:11.711Z,19.40
2022-08-16T08:55:59.054Z,18.60
2022-08-16T09:00:51.214Z,15.35
2022-08-16T09:05:37.324Z,15.32
2022-08-16T09:10:29.416Z,20.23
2022-08-16T09:15:21.505Z,12.10
2022-08-16T09:20:09.181Z,16.00
2022-08-16T09:25:09.901Z,22.75
2022-08-16T09:29:59.747Z,19.17
2022-08-16T09:34:45.843Z,17.25
2022-08-16T09:39:42.199Z,14.25
2022-08-16T09:45:11.271Z,11.52
2022-08-16T09:49:40.781Z,17.55
2022-08-16T09:54:32.690Z,16.77
2022-08-16T09:59:18.657Z,17.70
2022-08-16T10:04:13.016Z,16.58
2022-08-16T10:09:13.544Z,15.55
2022-08-16T10:13:59.666Z,16.50
2022-08-16T10:19:01.604Z,17.17
2022-08-16T10:23:53.483Z,13.57
2022-08-16T10:28:42.252Z,13.18
2022-08-16T10:33:29.569Z,16.45
2022-08-16T10:38:27.615Z,14.48
2022-08-16T10:43:18.352Z,20.75
2022-08-16T10:48:27.111Z,21.88
2022-08-16T10:53:13.168Z,16.10
2022-08-16T10:58:00.245Z,16.50
2022-08-16T11:03:01.302Z,21.42
2022-08-16T11:07:53.516Z,23.23
2022-08-16T11:12:39.613Z,20.15
2022-08-16T11:17:24.728Z,18.17
2022-08-16T11:22:38.597Z,16.45
2022-08-16T11:27:23.314Z,19.02
2022-08-16T11:32:10.207Z,16.02
2022-08-16T11:37:01.086Z,18.35
2022-08-16T11:41:46.558Z,16.38
2022-08-16T11:46:45.381Z,12.68
2022-08-16T11:51:31.839Z,12.98
2022-08-16T11:56:19.719Z,12.43
2022-08-16T12:01:05.118Z,11.70
2022-08-16T12:05:54.347Z,13.88
2022-08-16T12:10:43.271Z,12.70
2022-08-16T12:15:31.042Z,11.45
2022-08-16T12:20:30.352Z,13.80
2022-08-16T12:25:23.466Z,11.88
2022-08-16T12:30:21.236Z,10.93
2022-08-16T12:35:09.626Z,10.95
2022-08-16T12:39:56.240Z,10.70
2022-08-16T12:44:44.917Z,13.20
2022-08-16T12:49:30.839Z,13.95
2022-08-16T12:54:27.593Z,14.23
2022-08-16T12:59:20.111Z,17.40
2022-08-16T13:04:11.879Z,13.82
2022-08-16T13:09:20.623Z,14.80
2022-08-16T13:14:06.308Z,14.35
2022-08-16T13:18:52.991Z,11.45
2022-08-16T13:23:43.564Z,9.15
2022-08-16T13:28:29.575Z,11.82
2022-08-16T13:33:26.124Z,8.18
2022-08-16T13:38:24.413Z,8.53
2022-08-16T13:43:13.586Z,11.93
2022-08-16T13:48:02.447Z,9.57
2022-08-16T13:52:49.902Z,9.00
2022-08-16T13:58:26.880Z,13.10
2022-08-16T14:02:43.364Z,10.90
2022-08-16T14:07:29.438Z,12.07
2022-08-16T14:12:23.368Z,10.93
2022-08-16T14:17:09.748Z,7.47
2022-08-16T14:22:14.190Z,10.32
2022-08-16T14:27:00.894Z,12.30
2022-08-16T14:31:53.662Z,10.25
2022-08-16T14:36:42.132Z,8.90
2022-08-16T14:41:31.152Z,8.63
2022-08-16T14:46:16.926Z,9.10
2022-08-16T14:51:02.488Z,7.55
2022-08-16T14:55:48.492Z,8.35
2022-08-16T15:00:37.218Z,9.48
2022-08-16T15:05:23.910Z,10.98
2022-08-16T15:10:12.037Z,10.48
2022-08-16T15:15:12.584Z,8.32
2022-08-16T15:20:08.661Z,9.82
2022-08-16T15:24:58.953Z,9.23
2022-08-16T15:29:44.196Z,8.55
2022-08-16T15:34:29.702Z,9.15
2022-08-16T15:39:30.373Z,6.93
2022-08-16T15:44:25.237Z,8.73
2022-08-16T15:49:12.230Z,9.63
2022-08-16T15:54:29.761Z,7.20
2022-08-16T15:59:07.416Z,9.45
2022-08-16T16:03:52.555Z,9.00
2022-08-16T16:08:38.871Z,8.00
2022-08-16T16:13:24.825Z,9.80
2022-08-16T16:18:14.157Z,11.30
2022-08-16T16:23:00.145Z,11.27
2022-08-16T16:27:45.658Z,11.35
2022-08-16T16:32:34.321Z,8.48
2022-08-16T16:37:22.854Z,6.05
2022-08-16T16:42:09.117Z,6.80
2022-08-16T16:47:11.001Z,7.95
2022-08-16T16:52:06.911Z,8.70
2022-08-16T16:56:55.663Z,7.68
2022-08-16T17:01:59.328Z,7.82
2022-08-16T17:06:53.765Z,7.63
2022-08-16T17:11:44.577Z,6.70
2022-08-16T17:16:33.661Z,8.07
2022-08-16T17:21:19.194Z,9.23
2022-08-16T17:26:10.414Z,6.97
2022-08-16T17:30:56.234Z,6.90
2022-08-16T17:39:28.249Z,9.10
2022-08-16T17:45:41.084Z,13.70
2022-08-16T17:50:26.556Z,8.68
2022-08-16T17:55:23.939Z,8.50
2022-08-16T18:00:18.263Z,35.40
2022-08-16T18:05:05.326Z,8.45
2022-08-16T18:09:52.394Z,8.45
2022-08-16T18:14:52.429Z,11.95
2022-08-16T18:19:39.413Z,7.03
2022-08-16T18:24:25.103Z,11.68
2022-08-16T18:29:11.102Z,13.13
2022-08-16T18:33:58.798Z,13.77
2022-08-16T18:38:44.187Z,12.15
2022-08-16T18:44:24.216Z,14.98
2022-08-16T18:48:35.178Z,13.82
2022-08-16T18:53:24.920Z,13.90
2022-08-16T18:58:10.532Z,12.15
2022-08-16T19:03:04.975Z,13.50
2022-08-16T19:07:50.788Z,16.48
2022-08-16T19:12:42.399Z,12.23
2022-08-16T19:17:27.953Z,13.68
2022-08-16T19:22:13.112Z,14.18
2022-08-16T19:26:58.420Z,12.27
2022-08-16T19:31:46.138Z,16.73
2022-08-16T19:36:35.900Z,11.50
2022-08-16T19:41:21.774Z,15.02
2022-08-16T19:46:07.497Z,11.52
2022-08-16T19:50:55.234Z,14.48
2022-08-16T19:55:41.940Z,14.80
2022-08-16T20:00:35.213Z,9.43
2022-08-16T20:05:24.928Z,14.27
2022-08-16T20:10:13.758Z,13.75
2022-08-16T20:14:59.398Z,13.70
2022-08-16T20:19:45.627Z,11.15
2022-08-16T20:24:35.320Z,11.25
2022-08-16T20:29:23.597Z,10.20
2022-08-16T20:34:09.072Z,15.30
2022-08-16T20:38:54.304Z,15.27
2022-08-16T20:43:39.629Z,13.80
2022-08-16T20:48:27.335Z,12.10
2022-08-16T20:53:13.133Z,11.63
2022-08-16T20:57:58.207Z,11.55
2022-08-16T21:02:43.583Z,12.70
2022-08-16T21:07:31.386Z,7.85
2022-08-16T21:12:18.219Z,16.42
2022-08-16T21:17:04.201Z,13.55
2022-08-16T21:21:50.452Z,10.20
2022-08-16T21:26:39.282Z,11.65
2022-08-16T21:31:24.882Z,11.45
2022-08-16T21:36:10.733Z,12.27
2022-08-16T21:40:56.066Z,10.55
2022-08-16T21:45:46.131Z,8.35
2022-08-16T21:50:31.619Z,7.80
2022-08-16T21:55:16.750Z,11.35
2022-08-16T22:00:02.126Z,8.93
2022-08-16T22:04:51.759Z,10.15
2022-08-16T22:09:37.019Z,13.38
2022-08-16T22:14:22.484Z,10.77
2022-08-16T22:19:08.731Z,11.40
2022-08-16T22:23:58.768Z,11.77
2022-08-16T22:28:46.345Z,12.10
2022-08-16T22:33:32.037Z,9.18
2022-08-16T22:38:55.715Z,14.98
2022-08-16T22:43:27.175Z,8.50
2022-08-16T22:48:12.239Z,11.68
2022-08-16T22:52:57.604Z,6.43
2022-08-16T22:57:42.704Z,6.88
2022-08-16T23:02:30.658Z,8.65
2022-08-16T23:07:15.756Z,7.88
2022-08-16T23:12:04.636Z,5.30
2022-08-16T23:16:50.019Z,8.10
2022-08-16T23:21:39.955Z,8.07
2022-08-16T23:26:46.316Z,7.97
2022-08-16T23:31:30.518Z,6.72
2022-08-16T23:36:16.083Z,5.60
2022-08-16T23:41:09.091Z,9.07
2022-08-16T23:45:57.320Z,6.15
2022-08-16T23:50:47.620Z,6.90
2022-08-16T23:55:33.692Z,6.75
